Time;durP1;ratioP1;P1;durP2;ratioP2;P2;SDS_P1;SDS_P2;PMS_P1;PMS_P2;Temp;Humidity;BMP_temperature;BMP_pressure;BME280_temperature;BME280_humidity;BME280_pressure;Samples;Min_cycle;Max_cycle;Signal;HPM_P1;HPM_P2
2021/08/08 00:02:36;;;;;;;1.02;0.50;;;21.20;63.80;;;;;;21075324;28;20086;-20
2021/08/08 00:12:37;;;;;;;2.92;0.60;;;21.20;63.90;;;;;;21075464;28;20036;-20
2021/08/08 00:22:38;;;;;;;0.75;0.43;;;21.20;63.80;;;;;;21073734;28;20036;-20
2021/08/08 00:32:39;;;;;;;0.95;0.52;;;21.20;63.80;;;;;;21077575;28;20036;-20
2021/08/08 00:42:42;;;;;;;1.73;0.80;;;21.20;63.90;;;;;;21071663;28;20166;-20
2021/08/08 00:52:42;;;;;;;1.25;0.80;;;21.20;63.90;;;;;;21071472;28;20085;-20
2021/08/08 01:02:49;;;;;;;1.20;0.80;;;21.20;63.90;;;;;;21074169;28;20036;-19
2021/08/08 01:12:50;;;;;;;2.08;0.98;;;21.20;63.90;;;;;;21069899;28;20066;-20
2021/08/08 01:22:58;;;;;;;0.70;0.30;;;21.20;63.90;;;;;;21073768;28;20037;-20
2021/08/08 01:33:08;;;;;;;1.23;0.57;;;21.20;63.90;;;;;;21069198;28;20032;-19
2021/08/08 01:43:11;;;;;;;1.05;0.70;;;21.20;63.90;;;;;;21068237;28;20044;-19
2021/08/08 01:53:12;;;;;;;2.33;0.85;;;21.20;63.90;;;;;;21068334;28;20140;-20
2021/08/08 02:03:12;;;;;;;0.88;0.52;;;21.10;63.80;;;;;;21073484;28;20080;-19
2021/08/08 02:13:13;;;;;;;1.00;0.70;;;21.20;63.80;;;;;;21089485;28;20060;-20
2021/08/08 02:23:14;;;;;;;0.90;0.60;;;21.20;63.90;;;;;;21083243;28;20028;-20
2021/08/08 02:33:14;;;;;;;1.20;0.50;;;21.20;63.90;;;;;;21082081;28;20151;-20
2021/08/08 02:43:15;;;;;;;1.33;0.70;;;21.20;63.80;;;;;;21081154;28;20081;-20
2021/08/08 02:53:15;;;;;;;1.30;0.80;;;21.10;64.30;;;;;;21080659;28;20442;-20
2021/08/08 03:03:16;;;;;;;1.27;0.55;;;21.10;63.80;;;;;;21083173;28;20469;-20
2021/08/08 03:13:16;;;;;;;0.57;0.50;;;21.10;63.80;;;;;;21078522;28;20024;-20
2021/08/08 03:23:18;;;;;;;0.65;0.50;;;21.10;63.80;;;;;;21078074;28;20063;-20
2021/08/08 03:33:19;;;;;;;0.50;0.40;;;21.10;63.80;;;;;;21077967;28;20028;-20
2021/08/08 03:43:20;;;;;;;0.63;0.35;;;21.10;63.70;;;;;;21077710;28;20474;-20
2021/08/08 03:53:21;;;;;;;1.27;0.60;;;21.10;63.80;;;;;;21077184;28;20100;-20
2021/08/08 04:03:21;;;;;;;0.75;0.40;;;21.10;63.70;;;;;;21076455;28;20127;-20
2021/08/08 04:13:22;;;;;;;0.70;0.45;;;21.10;63.70;;;;;;21076053;28;20389;-20
2021/08/08 04:23:22;;;;;;;0.75;0.50;;;21.10;63.70;;;;;;21074079;28;20472;-21
2021/08/08 04:33:23;;;;;;;0.73;0.40;;;21.10;63.70;;;;;;21072771;28;20480;-19
2021/08/08 04:43:24;;;;;;;0.80;0.55;;;21.10;63.70;;;;;;21072647;28;20093;-19
2021/08/08 04:53:25;;;;;;;0.90;0.38;;;21.10;63.70;;;;;;21071675;28;20388;-20
2021/08/08 05:03:25;;;;;;;1.08;0.60;;;21.10;63.70;;;;;;21099159;22;20139;-20
2021/08/08 05:13:28;;;;;;;1.23;0.35;;;21.10;63.70;;;;;;21070164;28;20097;-20
2021/08/08 05:23:28;;;;;;;2.08;0.57;;;21.10;63.70;;;;;;21069574;28;20045;-20
2021/08/08 05:33:29;;;;;;;0.90;0.57;;;21.10;63.70;;;;;;21069247;28;20040;-20
2021/08/08 05:43:29;;;;;;;0.55;0.40;;;21.10;63.60;;;;;;21068001;28;20684;-21
2021/08/08 05:53:30;;;;;;;1.00;0.60;;;21.10;63.60;;;;;;21067936;28;20416;-21
2021/08/08 06:03:31;;;;;;;1.50;0.77;;;21.10;63.60;;;;;;21071575;28;20048;-22
2021/08/08 06:13:31;;;;;;;0.65;0.40;;;21.10;63.60;;;;;;21070119;28;20473;-22
2021/08/08 06:23:32;;;;;;;0.82;0.50;;;21.10;63.50;;;;;;21066698;28;20081;-21
2021/08/08 06:33:32;;;;;;;0.82;0.35;;;21.10;63.50;;;;;;21066832;28;20035;-21
2021/08/08 06:43:33;;;;;;;0.80;0.50;;;21.10;63.50;;;;;;21066080;28;20141;-21
2021/08/08 06:53:33;;;;;;;0.95;0.57;;;21.10;63.50;;;;;;21079066;28;20047;-19
2021/08/08 07:03:34;;;;;;;2.38;0.47;;;21.10;63.30;;;;;;21080575;28;20036;-19
2021/08/08 07:13:38;;;;;;;1.15;0.88;;;21.20;63.20;;;;;;21080643;28;20032;-19
2021/08/08 07:23:39;;;;;;;0.70;0.50;;;21.20;63.30;;;;;;21080411;28;20032;-21
2021/08/08 07:33:41;;;;;;;1.23;0.50;;;21.20;63.20;;;;;;21094216;28;20101;-21
2021/08/08 07:43:41;;;;;;;1.10;0.50;;;21.20;63.20;;;;;;21086034;28;20040;-21
2021/08/08 07:53:42;;;;;;;4.55;0.57;;;21.20;63.20;;;;;;21081046;28;20071;-19
2021/08/08 08:03:42;;;;;;;2.25;0.50;;;21.20;63.20;;;;;;21078099;28;20074;-20
2021/08/08 08:13:43;;;;;;;1.00;0.45;;;21.20;63.20;;;;;;21086012;28;20047;-20
2021/08/08 08:23:44;;;;;;;1.25;0.70;;;21.20;63.20;;;;;;21085399;28;20040;-20
2021/08/08 08:33:44;;;;;;;0.90;0.55;;;21.20;63.20;;;;;;21075967;28;20124;-20
2021/08/08 08:43:46;;;;;;;0.75;0.40;;;21.30;63.20;;;;;;21083009;28;20063;-21
2021/08/08 08:53:47;;;;;;;1.33;0.52;;;21.20;63.00;;;;;;21079391;28;20071;-20
2021/08/08 09:03:47;;;;;;;2.67;0.70;;;21.20;63.00;;;;;;21075188;28;20503;-21
2021/08/08 09:13:56;;;;;;;2.97;0.82;;;21.20;63.10;;;;;;21073075;28;20032;-22
2021/08/08 09:23:59;;;;;;;1.02;0.60;;;21.20;63.00;;;;;;21073492;28;20051;-21
2021/08/08 09:33:59;;;;;;;1.85;0.82;;;21.20;63.00;;;;;;21070844;28;20500;-21
2021/08/08 09:44:09;;;;;;;1.15;0.70;;;21.20;63.00;;;;;;21072090;28;20052;-21
2021/08/08 09:54:10;;;;;;;0.95;0.65;;;21.20;63.00;;;;;;21069761;28;20039;-21
2021/08/08 10:04:10;;;;;;;1.45;0.70;;;21.20;63.00;;;;;;21067952;28;20404;-20
2021/08/08 10:14:13;;;;;;;1.40;0.88;;;21.20;63.00;;;;;;21069788;28;20067;-20
2021/08/08 10:24:16;;;;;;;1.92;0.80;;;21.20;63.00;;;;;;21074790;28;20464;-21
2021/08/08 10:34:29;;;;;;;2.40;0.60;;;21.30;63.00;;;;;;21084355;28;20167;-21
2021/08/08 10:44:29;;;;;;;1.23;0.82;;;21.20;63.10;;;;;;21082610;28;20113;-21
2021/08/08 10:54:43;;;;;;;1.13;0.57;;;21.30;63.00;;;;;;21082033;28;20032;-21
2021/08/08 11:04:44;;;;;;;1.75;0.85;;;21.30;62.90;;;;;;21049405;22;20143;-20
2021/08/08 11:14:48;;;;;;;1.25;0.60;;;21.20;63.00;;;;;;20996870;28;20059;-21
2021/08/08 11:25:00;;;;;;;1.27;0.70;;;21.30;63.10;;;;;;20997053;28;20072;-20
2021/08/08 11:35:06;;;;;;;2.47;0.82;;;21.20;62.90;;;;;;20994778;28;20036;-20
2021/08/08 11:45:07;;;;;;;1.90;1.15;;;21.20;62.90;;;;;;21000906;28;20062;-20
2021/08/08 11:55:08;;;;;;;1.73;1.02;;;21.20;62.90;;;;;;20995532;28;20032;-21
2021/08/08 12:05:13;;;;;;;1.50;0.90;;;21.20;62.90;;;;;;20995525;28;20109;-20
2021/08/08 12:15:13;;;;;;;1.67;1.10;;;21.30;63.00;;;;;;20991730;28;20444;-20
2021/08/08 12:25:20;;;;;;;1.50;0.93;;;21.30;62.90;;;;;;20991214;28;20044;-20
2021/08/08 12:35:22;;;;;;;2.80;1.35;;;21.30;62.90;;;;;;20991930;28;20032;-20
2021/08/08 12:45:23;;;;;;;1.63;0.80;;;21.30;62.90;;;;;;20990207;28;20134;-21
2021/08/08 12:55:23;;;;;;;1.95;1.17;;;21.30;63.00;;;;;;20994768;28;20070;-20
2021/08/08 13:05:24;;;;;;;1.38;1.00;;;21.30;62.90;;;;;;20988543;28;20481;-20
2021/08/08 13:15:25;;;;;;;1.55;1.20;;;21.30;62.90;;;;;;20993762;28;20071;-20
2021/08/08 13:25:25;;;;;;;1.90;1.30;;;21.30;62.90;;;;;;20992687;28;20428;-20
2021/08/08 13:35:26;;;;;;;1.88;1.17;;;21.40;62.90;;;;;;20991651;28;20803;-20
2021/08/08 13:45:27;;;;;;;4.55;1.38;;;21.30;62.80;;;;;;20993761;28;20396;-19
2021/08/08 13:55:27;;;;;;;1.70;1.02;;;21.40;62.80;;;;;;20985845;28;20036;-19
2021/08/08 14:05:28;;;;;;;4.47;1.10;;;21.30;62.80;;;;;;21001637;28;20048;-20
2021/08/08 14:15:29;;;;;;;1.95;1.00;;;21.40;62.80;;;;;;21000783;28;20052;-20
2021/08/08 14:25:30;;;;;;;1.27;1.00;;;21.40;62.80;;;;;;21001060;28;20043;-19
2021/08/08 14:35:30;;;;;;;3.00;1.67;;;21.40;62.80;;;;;;21005896;28;20125;-19
2021/08/08 14:45:31;;;;;;;2.08;1.27;;;21.40;62.90;;;;;;20998427;28;20101;-20
2021/08/08 14:55:31;;;;;;;2.03;1.10;;;21.40;63.00;;;;;;20998802;28;20075;-20
2021/08/08 15:05:32;;;;;;;2.70;1.17;;;21.40;63.00;;;;;;20997151;28;20120;-20
2021/08/08 15:15:32;;;;;;;1.27;1.00;;;21.40;63.10;;;;;;20995073;28;20469;-20
2021/08/08 15:25:33;;;;;;;1.40;0.82;;;21.40;63.20;;;;;;20998306;28;20491;-20
2021/08/08 15:35:33;;;;;;;1.25;0.80;;;21.40;63.20;;;;;;20996580;28;20071;-19
2021/08/08 15:45:34;;;;;;;2.10;1.13;;;21.40;63.10;;;;;;20994850;28;20036;-19
2021/08/08 15:55:34;;;;;;;1.15;0.65;;;21.40;63.10;;;;;;21002949;28;20041;-19
2021/08/08 16:05:36;;;;;;;1.42;1.10;;;21.40;63.20;;;;;;20993237;28;20037;-21
2021/08/08 16:15:36;;;;;;;1.70;0.90;;;21.30;63.20;;;;;;20992222;28;20036;-21
2021/08/08 16:25:37;;;;;;;1.90;1.42;;;21.40;63.20;;;;;;20997384;28;20041;-21
2021/08/08 16:35:37;;;;;;;2.00;1.15;;;21.30;63.20;;;;;;20990454;28;20031;-20
2021/08/08 16:45:38;;;;;;;1.60;0.88;;;21.30;63.20;;;;;;20990026;28;20455;-21
2021/08/08 16:55:39;;;;;;;1.60;1.00;;;21.40;63.30;;;;;;20989175;28;20109;-21
2021/08/08 17:05:39;;;;;;;1.52;1.05;;;21.40;63.30;;;;;;21071352;22;20192;-21
2021/08/08 17:15:43;;;;;;;3.67;1.35;;;21.50;63.20;;;;;;21071152;28;20097;-21
2021/08/08 17:25:43;;;;;;;3.42;1.30;;;21.50;63.00;;;;;;21070984;28;20040;-21
2021/08/08 17:35:44;;;;;;;1.35;1.02;;;21.50;62.80;;;;;;21069794;28;20274;-20
2021/08/08 17:45:44;;;;;;;2.43;0.90;;;21.40;62.90;;;;;;21068368;28;20035;-21
2021/08/08 17:55:45;;;;;;;1.38;1.00;;;21.40;63.00;;;;;;21072232;28;20981;-21
2021/08/08 18:05:46;;;;;;;2.15;1.35;;;21.40;62.90;;;;;;21070584;28;20040;-20
2021/08/08 18:15:47;;;;;;;2.65;1.38;;;21.40;62.90;;;;;;21068186;28;20119;-21
2021/08/08 18:25:47;;;;;;;2.83;1.30;;;21.40;62.80;;;;;;21066226;28;20067;-21
2021/08/08 18:35:48;;;;;;;2.08;1.20;;;21.40;62.50;;;;;;21067112;28;20067;-21
2021/08/08 18:45:49;;;;;;;3.10;1.05;;;21.30;62.60;;;;;;21072565;28;20097;-21
2021/08/08 18:55:49;;;;;;;2.33;1.35;;;21.40;62.70;;;;;;21083846;28;20063;-21
2021/08/08 19:05:50;;;;;;;1.85;1.02;;;21.40;62.60;;;;;;21083636;28;20067;-21
2021/08/08 19:15:50;;;;;;;3.17;1.08;;;21.40;62.60;;;;;;21081174;28;20036;-21
2021/08/08 19:25:52;;;;;;;2.13;1.45;;;21.30;62.60;;;;;;21081368;28;20075;-22
2021/08/08 19:35:52;;;;;;;2.75;1.10;;;21.30;62.70;;;;;;21078388;28;20036;-21
2021/08/08 19:45:53;;;;;;;3.28;1.27;;;21.30;62.70;;;;;;21080671;28;20039;-21
2021/08/08 19:55:54;;;;;;;1.85;1.23;;;21.30;62.70;;;;;;21077828;28;20508;-21
2021/08/08 20:05:55;;;;;;;1.77;1.00;;;21.30;62.80;;;;;;21076751;28;20040;-20
2021/08/08 20:15:55;;;;;;;1.23;0.70;;;21.30;62.90;;;;;;21076084;28;20484;-20
2021/08/08 20:25:56;;;;;;;1.35;0.85;;;21.20;62.90;;;;;;21075586;28;20432;-21
2021/08/08 20:35:56;;;;;;;2.00;1.60;;;21.20;62.90;;;;;;21073995;28;20379;-21
2021/08/08 20:45:57;;;;;;;1.75;0.90;;;21.20;62.90;;;;;;21073560;28;20051;-21
2021/08/08 20:55:57;;;;;;;1.00;0.70;;;21.20;63.00;;;;;;21072589;28;20423;-21
2021/08/08 21:05:58;;;;;;;2.63;1.23;;;21.20;63.00;;;;;;21071054;28;20123;-21
2021/08/08 21:15:58;;;;;;;3.03;1.15;;;21.10;62.90;;;;;;21070576;28;20111;-20
2021/08/08 21:25:59;;;;;;;1.48;0.93;;;21.20;63.00;;;;;;21071020;28;20028;-20
2021/08/08 21:35:59;;;;;;;1.48;0.80;;;21.20;63.00;;;;;;21070427;28;20039;-21
2021/08/08 21:46:00;;;;;;;1.25;0.75;;;21.10;62.90;;;;;;21069537;28;20032;-20
2021/08/08 21:56:00;;;;;;;1.50;0.93;;;21.10;62.90;;;;;;21070253;28;20028;-20
2021/08/08 22:06:01;;;;;;;1.60;1.00;;;21.10;62.90;;;;;;21070955;28;20072;-20
2021/08/08 22:16:02;;;;;;;1.55;0.70;;;21.10;62.90;;;;;;21068301;28;20040;-21
2021/08/08 22:26:02;;;;;;;1.43;0.80;;;21.10;62.90;;;;;;21085300;28;20070;-20
2021/08/08 22:36:03;;;;;;;1.30;0.60;;;21.20;63.00;;;;;;21083870;28;20497;-21
2021/08/08 22:46:04;;;;;;;1.25;0.77;;;21.10;62.90;;;;;;21084106;28;20172;-21
2021/08/08 22:56:04;;;;;;;1.02;0.70;;;21.10;62.80;;;;;;21083563;28;20078;-21
2021/08/08 23:06:05;;;;;;;1.48;0.98;;;21.10;62.90;;;;;;21085018;28;20028;-22
2021/08/08 23:16:06;;;;;;;0.93;0.60;;;21.10;63.10;;;;;;21083032;28;20097;-20
2021/08/08 23:26:06;;;;;;;0.90;0.68;;;21.10;62.80;;;;;;21080397;28;20064;-21
2021/08/08 23:36:07;;;;;;;1.67;0.70;;;21.10;62.80;;;;;;21078003;28;20040;-21
2021/08/08 23:46:07;;;;;;;1.20;0.77;;;21.10;62.80;;;;;;21078116;28;20228;-21
2021/08/08 23:56:08;;;;;;;2.35;1.50;;;21.10;62.70;;;;;;21079588;28;20036;-20
